Machigasta, Argentina
Current Conditions -  °F | °C
As of 9:00 AM on Thursday 30 Oct 2014 (Local Time) from SANT Reporting Station
Overcast Overcast  
Wind Chill: 70°   Ceiling: 4000
Heat Index: 70°   Visibility: 6mi
Dew Point: 64°   Wind: 5mph
Humidity: 83%   Direction: 270°W
Pressure: 29.88"   Gusts: NA
Location:  28.55°S, 66.8°W
Report Text: SANT 301200Z 27004KT 9999 SCT030 OVC04021/18 Q1012
Loading
Personal Weather Stations






























Interactive Weather Map New forecast layout! Learn more

10-Day Weather Forecast

Advertisements
Track Severe Weather on mobile